SRG336E EGCK-EGCK
Flight info
| Callsign | SRG336E |
|---|---|
| Flight time | 0h 11m |
| Altitude | 4800 |
| Route | OAT |
| Aircraft | A139/L-V/N |
Departure
| Time | 2026-04-26 21:04 |
|---|---|
| Airport | Caernarfon Airport (EGCK) |
Arrival
| Time | 2026-04-26 21:15 |
|---|---|
| Airport | Caernarfon Airport (EGCK) |
| Time | Latitude | Longitude | Altitude | Speed | Heading |
|---|---|---|---|---|---|
| 2026-04-26 20:38 | 53.45853 | -2.92691 | 71 ft | 0 kts | 89° |
| 2026-04-26 20:39 | 53.45852 | -2.92683 | 83 ft | 3 kts | 86° |
| 2026-04-26 20:39 | 53.45833 | -2.92627 | 298 ft | 20 kts | 87° |
| 2026-04-26 20:39 | 53.45831 | -2.92621 | 315 ft | 20 kts | 87° |
| 2026-04-26 20:40 | 53.45813 | -2.92188 | 624 ft | 72 kts | 86° |
| 2026-04-26 20:40 | 53.45893 | -2.90984 | 916 ft | 115 kts | 88° |
| 2026-04-26 20:40 | 53.45712 | -2.89852 | 1049 ft | 97 kts | 130° |
| 2026-04-26 20:40 | 53.45166 | -2.89377 | 1022 ft | 93 kts | 197° |
| 2026-04-26 20:41 | 53.44788 | -2.90155 | 1074 ft | 88 kts | 258° |
| 2026-04-26 20:41 | 53.44601 | -2.91101 | 1118 ft | 86 kts | 257° |
| 2026-04-26 20:41 | 53.44449 | -2.92068 | 1118 ft | 86 kts | 255° |
| 2026-04-26 20:41 | 53.44273 | -2.93045 | 1110 ft | 86 kts | 255° |
| 2026-04-26 20:42 | 53.44074 | -2.94014 | 1102 ft | 87 kts | 251° |
| 2026-04-26 20:42 | 53.43850 | -2.94970 | 1101 ft | 87 kts | 252° |
| 2026-04-26 20:42 | 53.43635 | -2.95918 | 1101 ft | 87 kts | 252° |
| 2026-04-26 20:42 | 53.43420 | -2.96875 | 1104 ft | 86 kts | 252° |
| 2026-04-26 20:43 | 53.43203 | -2.97841 | 1027 ft | 97 kts | 251° |
| 2026-04-26 20:43 | 53.42967 | -2.99179 | 1089 ft | 129 kts | 253° |
| 2026-04-26 20:43 | 53.42673 | -3.00649 | 1133 ft | 134 kts | 252° |
| 2026-04-26 20:43 | 53.42352 | -3.02160 | 1147 ft | 136 kts | 251° |
| 2026-04-26 20:44 | 53.42032 | -3.03667 | 1089 ft | 142 kts | 252° |
| 2026-04-26 20:44 | 53.41698 | -3.05253 | 1108 ft | 142 kts | 251° |
| 2026-04-26 20:44 | 53.41364 | -3.06818 | 1121 ft | 142 kts | 251° |
| 2026-04-26 20:44 | 53.41028 | -3.08392 | 1121 ft | 143 kts | 251° |
| 2026-04-26 20:45 | 53.40694 | -3.09961 | 1112 ft | 143 kts | 252° |
| 2026-04-26 20:45 | 53.40357 | -3.11548 | 1114 ft | 143 kts | 252° |
| 2026-04-26 20:45 | 53.40022 | -3.13128 | 1126 ft | 142 kts | 252° |
| 2026-04-26 20:45 | 53.39736 | -3.14733 | 1113 ft | 142 kts | 256° |
| 2026-04-26 20:46 | 53.39458 | -3.16328 | 1107 ft | 143 kts | 256° |
| 2026-04-26 20:46 | 53.39177 | -3.17937 | 1114 ft | 142 kts | 255° |
| 2026-04-26 20:46 | 53.38896 | -3.19542 | 1115 ft | 142 kts | 256° |
| 2026-04-26 20:46 | 53.38613 | -3.21131 | 1117 ft | 142 kts | 254° |
| 2026-04-26 20:47 | 53.38295 | -3.22559 | 1170 ft | 119 kts | 254° |
| 2026-04-26 20:47 | 53.38106 | -3.23357 | 1170 ft | 102 kts | 255° |
| 2026-04-26 20:47 | 53.37879 | -3.24688 | 1105 ft | 79 kts | 257° |
| 2026-04-26 20:47 | 53.37753 | -3.25571 | 1048 ft | 76 kts | 257° |
| 2026-04-26 20:48 | 53.37655 | -3.26439 | 1060 ft | 76 kts | 257° |
| 2026-04-26 20:48 | 53.37560 | -3.27301 | 1095 ft | 75 kts | 258° |
| 2026-04-26 20:48 | 53.37445 | -3.28166 | 1108 ft | 76 kts | 258° |
| 2026-04-26 20:48 | 53.37307 | -3.29025 | 1117 ft | 76 kts | 257° |
| 2026-04-26 20:49 | 53.37166 | -3.29885 | 1115 ft | 77 kts | 257° |
| 2026-04-26 20:49 | 53.37020 | -3.30770 | 1118 ft | 77 kts | 257° |
| 2026-04-26 20:49 | 53.36879 | -3.31630 | 1119 ft | 77 kts | 257° |
| 2026-04-26 20:49 | 53.36736 | -3.32509 | 1122 ft | 77 kts | 257° |
| 2026-04-26 20:50 | 53.36601 | -3.33364 | 1117 ft | 77 kts | 257° |
| 2026-04-26 20:50 | 53.36461 | -3.34234 | 1113 ft | 77 kts | 257° |
| 2026-04-26 20:50 | 53.36322 | -3.35095 | 1114 ft | 76 kts | 257° |
| 2026-04-26 20:50 | 53.36182 | -3.35962 | 1114 ft | 76 kts | 257° |
| 2026-04-26 20:51 | 53.36041 | -3.36825 | 1111 ft | 77 kts | 257° |
| 2026-04-26 20:51 | 53.35897 | -3.37688 | 1117 ft | 76 kts | 257° |
| 2026-04-26 20:51 | 53.35755 | -3.38535 | 1116 ft | 76 kts | 257° |
| 2026-04-26 20:51 | 53.35611 | -3.39399 | 1112 ft | 77 kts | 257° |
| 2026-04-26 20:52 | 53.35468 | -3.40271 | 1112 ft | 77 kts | 257° |
| 2026-04-26 20:52 | 53.35329 | -3.41126 | 1113 ft | 77 kts | 257° |
| 2026-04-26 20:52 | 53.35186 | -3.42006 | 1112 ft | 78 kts | 257° |
| 2026-04-26 20:52 | 53.35043 | -3.42879 | 1113 ft | 77 kts | 257° |
| 2026-04-26 20:53 | 53.34903 | -3.43751 | 1115 ft | 77 kts | 257° |
| 2026-04-26 20:53 | 53.34763 | -3.44619 | 1109 ft | 77 kts | 257° |
| 2026-04-26 20:53 | 53.34629 | -3.45486 | 1101 ft | 77 kts | 257° |
| 2026-04-26 20:53 | 53.34499 | -3.46356 | 1098 ft | 78 kts | 257° |
| 2026-04-26 20:54 | 53.34369 | -3.47238 | 1099 ft | 78 kts | 257° |
| 2026-04-26 20:54 | 53.34236 | -3.48118 | 1105 ft | 77 kts | 257° |
| 2026-04-26 20:54 | 53.34105 | -3.48983 | 1109 ft | 76 kts | 257° |
| 2026-04-26 20:54 | 53.33973 | -3.49849 | 1103 ft | 76 kts | 257° |
| 2026-04-26 20:55 | 53.33840 | -3.50706 | 1100 ft | 76 kts | 257° |
| 2026-04-26 20:55 | 53.33711 | -3.51561 | 1097 ft | 76 kts | 257° |
| 2026-04-26 20:55 | 53.33584 | -3.52418 | 1100 ft | 76 kts | 257° |
| 2026-04-26 20:55 | 53.33458 | -3.53280 | 1101 ft | 76 kts | 257° |
| 2026-04-26 20:56 | 53.33336 | -3.54141 | 1107 ft | 75 kts | 257° |
| 2026-04-26 20:56 | 53.33213 | -3.55006 | 1104 ft | 76 kts | 258° |
| 2026-04-26 20:56 | 53.33086 | -3.55874 | 1106 ft | 76 kts | 257° |
| 2026-04-26 20:56 | 53.32956 | -3.56743 | 1107 ft | 77 kts | 257° |
| 2026-04-26 20:57 | 53.32823 | -3.57609 | 1111 ft | 76 kts | 257° |
| 2026-04-26 20:57 | 53.32690 | -3.58469 | 1109 ft | 76 kts | 258° |
| 2026-04-26 20:57 | 53.32555 | -3.59328 | 1108 ft | 76 kts | 257° |
| 2026-04-26 20:57 | 53.32421 | -3.60187 | 1104 ft | 77 kts | 257° |
| 2026-04-26 20:58 | 53.32286 | -3.61057 | 1107 ft | 77 kts | 257° |
| 2026-04-26 20:58 | 53.32150 | -3.61926 | 1110 ft | 76 kts | 257° |
| 2026-04-26 20:58 | 53.32020 | -3.62782 | 1111 ft | 76 kts | 257° |
| 2026-04-26 20:58 | 53.31888 | -3.63641 | 1110 ft | 75 kts | 257° |
| 2026-04-26 20:59 | 53.31762 | -3.64490 | 1105 ft | 75 kts | 257° |
| 2026-04-26 20:59 | 53.31641 | -3.65351 | 1101 ft | 76 kts | 257° |
| 2026-04-26 20:59 | 53.31524 | -3.66215 | 1102 ft | 76 kts | 257° |
| 2026-04-26 20:59 | 53.31406 | -3.67084 | 1106 ft | 76 kts | 257° |
| 2026-04-26 21:00 | 53.31290 | -3.67948 | 1109 ft | 75 kts | 256° |
| 2026-04-26 21:00 | 53.31183 | -3.68816 | 1099 ft | 77 kts | 257° |
| 2026-04-26 21:00 | 53.31080 | -3.69704 | 1100 ft | 78 kts | 257° |
| 2026-04-26 21:00 | 53.30975 | -3.70595 | 1108 ft | 77 kts | 257° |
| 2026-04-26 21:01 | 53.30871 | -3.71481 | 1110 ft | 77 kts | 257° |
| 2026-04-26 21:01 | 53.30759 | -3.72374 | 1104 ft | 78 kts | 256° |
| 2026-04-26 21:01 | 53.30635 | -3.73250 | 1110 ft | 78 kts | 257° |
| 2026-04-26 21:01 | 53.30506 | -3.74124 | 1113 ft | 76 kts | 257° |
| 2026-04-26 21:02 | 53.30383 | -3.74978 | 1107 ft | 75 kts | 257° |
| 2026-04-26 21:02 | 53.30259 | -3.75842 | 1098 ft | 77 kts | 257° |
| 2026-04-26 21:02 | 53.30135 | -3.76711 | 1100 ft | 77 kts | 257° |
| 2026-04-26 21:02 | 53.30009 | -3.77595 | 1099 ft | 78 kts | 257° |
| 2026-04-26 21:03 | 53.29884 | -3.78475 | 1105 ft | 78 kts | 257° |
| 2026-04-26 21:03 | 53.29765 | -3.79359 | 1111 ft | 78 kts | 257° |
| 2026-04-26 21:03 | 53.29647 | -3.80240 | 1117 ft | 77 kts | 257° |
| 2026-04-26 21:03 | 53.29575 | -3.81142 | 1040 ft | 89 kts | 264° |
| 2026-04-26 21:04 | 53.29591 | -3.82536 | 1083 ft | 131 kts | 266° |
| 2026-04-26 21:04 | 53.29567 | -3.84132 | 1061 ft | 141 kts | 265° |
| 2026-04-26 21:04 | 53.29520 | -3.85776 | 1124 ft | 141 kts | 263° |
| 2026-04-26 21:04 | 53.29359 | -3.87369 | 1143 ft | 140 kts | 253° |
| 2026-04-26 21:05 | 53.29038 | -3.88928 | 1145 ft | 140 kts | 250° |
| 2026-04-26 21:05 | 53.28708 | -3.90475 | 1138 ft | 140 kts | 250° |
| 2026-04-26 21:05 | 53.28385 | -3.92021 | 1131 ft | 141 kts | 250° |
| 2026-04-26 21:05 | 53.28017 | -3.93535 | 1126 ft | 141 kts | 246° |
| 2026-04-26 21:06 | 53.27625 | -3.95041 | 1130 ft | 140 kts | 246° |
| 2026-04-26 21:06 | 53.27239 | -3.96552 | 1127 ft | 141 kts | 246° |
| 2026-04-26 21:06 | 53.26852 | -3.98075 | 1127 ft | 141 kts | 246° |
| 2026-04-26 21:06 | 53.26437 | -3.99555 | 1131 ft | 141 kts | 242° |
| 2026-04-26 21:07 | 53.25985 | -4.01000 | 1137 ft | 140 kts | 242° |
| 2026-04-26 21:07 | 53.25536 | -4.02441 | 1123 ft | 141 kts | 242° |
| 2026-04-26 21:07 | 53.25077 | -4.03913 | 1123 ft | 141 kts | 242° |
| 2026-04-26 21:07 | 53.24621 | -4.05367 | 1119 ft | 142 kts | 242° |
| 2026-04-26 21:08 | 53.24160 | -4.06825 | 1119 ft | 142 kts | 242° |
| 2026-04-26 21:08 | 53.23701 | -4.08275 | 1123 ft | 142 kts | 242° |
| 2026-04-26 21:08 | 53.23243 | -4.09738 | 1110 ft | 143 kts | 242° |
| 2026-04-26 21:08 | 53.22779 | -4.11224 | 1114 ft | 143 kts | 242° |
| 2026-04-26 21:09 | 53.22318 | -4.12709 | 1114 ft | 142 kts | 242° |
| 2026-04-26 21:09 | 53.21865 | -4.14161 | 1117 ft | 142 kts | 242° |
| 2026-04-26 21:09 | 53.21403 | -4.15628 | 1133 ft | 141 kts | 242° |
| 2026-04-26 21:09 | 53.20934 | -4.17025 | 1178 ft | 134 kts | 240° |
| 2026-04-26 21:10 | 53.20454 | -4.18346 | 1130 ft | 134 kts | 235° |
| 2026-04-26 21:10 | 53.19918 | -4.19614 | 1107 ft | 134 kts | 235° |
| 2026-04-26 21:10 | 53.19382 | -4.20900 | 1106 ft | 133 kts | 235° |
| 2026-04-26 21:10 | 53.18859 | -4.22164 | 1111 ft | 132 kts | 235° |
| 2026-04-26 21:11 | 53.18358 | -4.23329 | 1199 ft | 113 kts | 235° |
| 2026-04-26 21:11 | 53.17897 | -4.24313 | 1016 ft | 107 kts | 235° |
| 2026-04-26 21:11 | 53.17431 | -4.25279 | 836 ft | 107 kts | 233° |
| 2026-04-26 21:11 | 53.16989 | -4.26281 | 782 ft | 105 kts | 234° |
| 2026-04-26 21:12 | 53.16423 | -4.27054 | 790 ft | 105 kts | 214° |
| 2026-04-26 21:12 | 53.15829 | -4.27709 | 793 ft | 102 kts | 214° |
| 2026-04-26 21:12 | 53.15237 | -4.28375 | 739 ft | 100 kts | 214° |
| 2026-04-26 21:12 | 53.14711 | -4.28986 | 732 ft | 84 kts | 213° |
| 2026-04-26 21:13 | 53.14246 | -4.29511 | 602 ft | 80 kts | 212° |
| 2026-04-26 21:13 | 53.13782 | -4.29980 | 580 ft | 77 kts | 214° |
| 2026-04-26 21:13 | 53.13326 | -4.30471 | 566 ft | 78 kts | 213° |
| 2026-04-26 21:13 | 53.12877 | -4.30978 | 497 ft | 78 kts | 212° |
| 2026-04-26 21:14 | 53.12410 | -4.31481 | 451 ft | 81 kts | 212° |
| 2026-04-26 21:14 | 53.11944 | -4.31958 | 447 ft | 78 kts | 212° |
| 2026-04-26 21:14 | 53.11490 | -4.32437 | 395 ft | 75 kts | 213° |
| 2026-04-26 21:14 | 53.11042 | -4.32868 | 308 ft | 75 kts | 202° |
| 2026-04-26 21:15 | 53.10589 | -4.33184 | 200 ft | 59 kts | 201° |
| 2026-04-26 21:15 | 53.10300 | -4.33401 | 92 ft | 30 kts | 202° |
| 2026-04-26 21:15 | 53.10190 | -4.33492 | 51 ft | 10 kts | 202° |
| 2026-04-26 21:15 | 53.10149 | -4.33528 | 23 ft | 3 kts | 204° |
| 2026-04-26 21:16 | 53.10138 | -4.33537 | 12 ft | 5 kts | 206° |
| 2026-04-26 21:16 | 53.10116 | -4.33514 | 12 ft | 4 kts | 1° |
| 2026-04-26 21:16 | 53.10123 | -4.33516 | 12 ft | 0 kts | 347° |